Terminal Aerodrome Forecast
Issued by NWS Cleveland, OH

Home | Current Version | Previous Version | Text Only | Print | Product List | Glossary Off
Versions: 1 2 3 4 5 6 7 8 9 10 11 12 13 14 15 16 17 18 19 20 21 22

000
FTUS41 KCLE 182046 AAA
TAFCAK
TAF AMD
KCAK 182046Z 1821/1918 14012KT P6SM OVC025 WS020/20045KT
     FM182200 18012KT 2SM -SHRA VCTS SCT006 OVC012CB WS020/20045KT
      TEMPO 1822/1824 VRB25G35KT 3/4SM -TSRA OVC006CB
     FM190000 25020G35KT 2SM -SHRA BR OVC006
     FM191000 30020G40KT P6SM VCSH OVC015=

USA.gov is the U.S. government's official web portal to all federal, state and local government web resources and services.